Huvudsida
METAR-TAF:

METAR-TAF

Flygplatser :

Volgograd, Ryssland

latitud: 48-47N, longitud: 044-22E, höjd: 145 m

Aktuellt väderrapport

Denna rapport gjordes för 36 minuter sedan, klockan 21:00 UTC
Vind 6 kt från ost/nordost
Temperatur 15°C
Fuktighet 59%
Tryck 1020 hPa
Sikt 10 km eller mer
Inga moln under 1 500 m eller inga cumulonimbus

METAR: URWW 192100Z 07003MPS CAVOK 15/07 Q1020 R06/010070 NOSIG

Tid: 00:36 (21:36 UTC)

Väderprognos

Denna rapport gjordes för 1 timme och 37 minuter sedan, klockan 19:59 UTC
Prognos gäller från 19 kl. 21 UTC till 20 kl. 06 UTC
Vind 6 kt från ost/nordost i byarna ända upp till 16 kt
Sikt 10 km eller mer
Inga moln under 1 500 m eller inga cumulonimbus
Temporärt
från 19 kl. 21 UTC till 20 kl. 06 UTC
Vind 6 kt från nord/nordost i byarna ända upp till 16 kt

TAF: URWW 191959Z 1921/2006 07003G08MPS CAVOK TEMPO 1921/2006 03003G08MPS

Aktuella väderrapporter och prognoser från 4000 flygplatser (METAR- och TAF-rapporter).

De tillgängliga stationerna syns som gula och röda prickar på kartan.

För musen över prickarna för att se namnen på stationerna.

Klicka sedan för att få väderrapporter och prognoser.

För att ändra kartan: Klicka på de gröna knapparna med ett svart kors på för att zooma in; den gröna knappen med ett streck på för att zooma ut; eller på de gröna pilarna för angränsande kartor.


METAR-TAF: